Time;durP1;ratioP1;P1;durP2;ratioP2;P2;SDS_P1;SDS_P2;PMS_P1;PMS_P2;Temp;Humidity;BMP_temperature;BMP_pressure;BME280_temperature;BME280_humidity;BME280_pressure;Samples;Min_cycle;Max_cycle;Signal;HPM_P1;HPM_P2
2022/12/08 00:02:47;;;;;;;30.50;13.00;;;;;1.70;95739.00;;;;8468958;28;20213;-80
2022/12/08 00:11:12;;;;;;;36.73;12.43;;;;;1.80;95741.00;;;;8468015;28;20275;-79
2022/12/08 00:15:15;;;;;;;30.63;12.50;;;;;1.90;95738.00;;;;8467550;28;20194;-79
2022/12/08 00:19:20;;;;;;;35.07;12.87;;;;;2.00;95733.00;;;;8467327;28;20198;-78
2022/12/08 00:23:23;;;;;;;24.80;12.00;;;;;2.10;95732.00;;;;8469025;28;20628;-79
2022/12/08 00:27:26;;;;;;;27.57;12.37;;;;;2.10;95736.00;;;;8467464;28;20222;-78
2022/12/08 00:31:29;;;;;;;31.50;12.53;;;;;2.20;95728.00;;;;8467096;28;20594;-78
2022/12/08 00:36:09;;;;;;;37.37;12.67;;;;;2.20;95730.00;;;;8449959;28;20196;-79
2022/12/08 00:40:12;;;;;;;34.30;13.67;;;;;2.30;95730.00;;;;8433134;28;20251;-78
2022/12/08 00:44:18;;;;;;;38.33;13.70;;;;;2.40;95723.00;;;;8432732;28;20194;-78
2022/12/08 00:48:21;;;;;;;38.97;13.97;;;;;2.40;95724.00;;;;8433843;28;20221;-77
2022/12/08 00:52:25;;;;;;;37.47;13.53;;;;;2.40;95736.00;;;;8432971;28;20533;-77
2022/12/08 00:56:28;;;;;;;37.00;14.27;;;;;2.40;95735.00;;;;8432477;28;20226;-77
2022/12/08 01:00:31;;;;;;;30.67;12.37;;;;;2.40;95725.00;;;;8433069;28;20201;-77
2022/12/08 01:05:08;;;;;;;27.93;13.10;;;;;2.40;95722.00;;;;8427943;28;20218;-77
2022/12/08 01:09:14;;;;;;;39.77;13.90;;;;;2.40;95728.00;;;;8432607;28;20529;-77
2022/12/08 01:13:17;;;;;;;31.07;13.50;;;;;2.50;95728.00;;;;8432341;28;20658;-77
2022/12/08 01:17:20;;;;;;;34.60;13.50;;;;;2.50;95731.00;;;;8432188;28;20533;-77
2022/12/08 01:21:24;;;;;;;33.90;12.70;;;;;2.50;95730.00;;;;8430852;28;20203;-76
2022/12/08 01:25:28;;;;;;;36.80;13.27;;;;;2.50;95739.00;;;;8431195;28;20194;-77
2022/12/08 01:29:31;;;;;;;33.10;13.77;;;;;2.50;95730.00;;;;8431121;28;20722;-77
2022/12/08 01:33:34;;;;;;;34.43;13.20;;;;;2.60;95733.00;;;;8431421;28;20194;-76
2022/12/08 01:37:37;;;;;;;35.00;14.30;;;;;2.60;95722.00;;;;8431098;28;20277;-76
2022/12/08 01:41:43;;;;;;;34.90;14.00;;;;;2.60;95729.00;;;;8432093;28;20214;-75
2022/12/08 01:45:47;;;;;;;28.13;12.47;;;;;2.60;95722.00;;;;8429392;28;20193;-75
2022/12/08 01:49:50;;;;;;;33.47;14.07;;;;;2.60;95717.00;;;;8430668;28;20541;-75
2022/12/08 01:53:54;;;;;;;32.23;13.90;;;;;2.60;95716.00;;;;8429739;28;20194;-75
2022/12/08 01:58:03;;;;;;;37.80;13.23;;;;;2.60;95717.00;;;;8431331;28;20674;-75
2022/12/08 02:02:06;;;;;;;38.83;14.43;;;;;2.60;95715.00;;;;8430026;28;20215;-75
2022/12/08 02:06:10;;;;;;;37.37;14.10;;;;;2.70;95702.00;;;;8431199;28;20202;-75
2022/12/08 02:10:19;;;;;;;36.70;13.93;;;;;2.70;95702.00;;;;8430222;28;20226;-73
2022/12/08 02:14:51;;;;;;;36.27;14.23;;;;;2.70;95694.00;;;;8431306;28;20541;-75
2022/12/08 02:19:05;;;;;;;34.67;14.50;;;;;2.70;95695.00;;;;8430292;28;20220;-75
2022/12/08 02:23:38;;;;;;;36.13;14.17;;;;;2.70;95690.00;;;;8430895;28;20609;-74
2022/12/08 02:27:52;;;;;;;40.53;15.00;;;;;2.80;95690.00;;;;8430182;28;20249;-75
2022/12/08 02:32:10;;;;;;;37.37;14.50;;;;;2.80;95684.00;;;;8430339;28;20194;-74
2022/12/08 02:36:20;;;;;;;43.23;14.27;;;;;2.80;95678.00;;;;8430322;28;20207;-74
2022/12/08 02:40:30;;;;;;;40.90;14.07;;;;;2.80;95677.00;;;;8430094;28;20241;-75
2022/12/08 02:44:37;;;;;;;37.33;14.40;;;;;2.80;95674.00;;;;8431040;28;20255;-74
2022/12/08 02:49:08;;;;;;;41.10;15.10;;;;;2.80;95676.00;;;;8430221;28;20211;-74
2022/12/08 02:53:12;;;;;;;39.70;14.50;;;;;2.80;95669.00;;;;8429895;28;20544;-73
2022/12/08 02:57:28;;;;;;;36.53;13.63;;;;;2.80;95666.00;;;;8429923;28;20576;-74
2022/12/08 03:01:52;;;;;;;36.00;13.97;;;;;2.70;95656.00;;;;8451358;22;20429;-71
2022/12/08 03:06:05;;;;;;;44.43;14.70;;;;;2.70;95653.00;;;;8384636;28;20225;-71
2022/12/08 03:10:16;;;;;;;42.93;15.27;;;;;2.60;95650.00;;;;8392922;28;20272;-70
2022/12/08 03:14:21;;;;;;;45.73;16.77;;;;;2.60;95645.00;;;;8393334;28;20215;-71
2022/12/08 03:18:28;;;;;;;47.60;16.33;;;;;2.60;95646.00;;;;8386344;28;20203;-71
2022/12/08 03:22:32;;;;;;;59.00;18.33;;;;;2.50;95641.00;;;;8390177;28;20235;-71
2022/12/08 03:26:45;;;;;;;48.90;17.00;;;;;2.50;95625.00;;;;8392036;28;20198;-72
2022/12/08 03:30:55;;;;;;;48.00;16.10;;;;;2.40;95625.00;;;;8403834;28;20256;-71
2022/12/08 03:35:01;;;;;;;47.27;18.33;;;;;2.40;95622.00;;;;8384910;28;20218;-71
2022/12/08 03:39:04;;;;;;;45.13;16.53;;;;;2.50;95625.00;;;;8369779;28;20198;-71
2022/12/08 03:43:09;;;;;;;51.33;17.10;;;;;2.50;95625.00;;;;8386323;28;20310;-71
2022/12/08 03:47:12;;;;;;;48.47;16.10;;;;;2.50;95627.00;;;;8377756;28;20211;-69
2022/12/08 03:51:16;;;;;;;40.30;14.70;;;;;2.50;95626.00;;;;8372590;28;20199;-71
2022/12/08 03:55:20;;;;;;;47.30;15.90;;;;;2.50;95625.00;;;;8387053;28;20253;-71
2022/12/08 03:59:24;;;;;;;47.43;16.70;;;;;2.50;95626.00;;;;8386447;28;20209;-70
2022/12/08 04:03:27;;;;;;;44.90;15.00;;;;;2.60;95617.00;;;;8386423;28;20284;-70
2022/12/08 04:07:30;;;;;;;44.73;15.67;;;;;2.60;95619.00;;;;8386665;28;20226;-71
2022/12/08 04:11:34;;;;;;;43.07;15.33;;;;;2.50;95617.00;;;;8387998;28;20248;-70
2022/12/08 04:15:38;;;;;;;45.17;15.07;;;;;2.40;95610.00;;;;8387446;28;20623;-71
2022/12/08 04:19:42;;;;;;;36.53;13.90;;;;;2.30;95610.00;;;;8387394;28;20202;-71
2022/12/08 04:23:45;;;;;;;39.00;14.70;;;;;2.20;95605.00;;;;8382246;28;20251;-70
2022/12/08 04:27:49;;;;;;;39.90;14.90;;;;;2.10;95608.00;;;;8384144;28;20211;-70
2022/12/08 04:31:53;;;;;;;47.87;15.73;;;;;2.00;95614.00;;;;8373942;28;20208;-70
2022/12/08 04:35:56;;;;;;;41.53;14.80;;;;;1.90;95610.00;;;;8382284;28;20201;-70
2022/12/08 04:39:59;;;;;;;39.30;14.00;;;;;1.90;95602.00;;;;8385980;28;20199;-71
2022/12/08 04:44:03;;;;;;;35.47;14.27;;;;;1.80;95605.00;;;;8383825;28;20198;-71
2022/12/08 04:48:08;;;;;;;36.47;13.83;;;;;1.80;95610.00;;;;8364217;28;20249;-70
2022/12/08 04:52:11;;;;;;;38.40;13.77;;;;;1.80;95605.00;;;;8368703;28;20207;-71
2022/12/08 04:56:15;;;;;;;30.13;13.07;;;;;1.70;95605.00;;;;8369092;28;20881;-70
2022/12/08 05:00:19;;;;;;;37.33;12.97;;;;;1.50;95605.00;;;;8381528;28;20214;-69
2022/12/08 05:04:24;;;;;;;33.83;12.87;;;;;1.40;95602.00;;;;8383928;28;20589;-71
2022/12/08 05:08:28;;;;;;;38.10;13.73;;;;;1.40;95605.00;;;;8378271;28;20222;-70
2022/12/08 05:12:31;;;;;;;35.47;14.07;;;;;1.30;95599.00;;;;8384804;28;20198;-70
2022/12/08 05:16:49;;;;;;;34.43;14.37;;;;;1.30;95602.00;;;;8368273;28;20229;-69
2022/12/08 05:20:57;;;;;;;32.13;13.07;;;;;1.30;95590.00;;;;8377079;28;20209;-70
2022/12/08 05:25:00;;;;;;;35.07;13.50;;;;;1.20;95592.00;;;;8372858;28;20201;-70
2022/12/08 05:29:03;;;;;;;37.07;13.93;;;;;1.10;95594.00;;;;8375406;28;20239;-72
2022/12/08 05:33:07;;;;;;;29.13;12.20;;;;;1.00;95589.00;;;;8369362;28;20206;-71
2022/12/08 05:37:12;;;;;;;32.20;13.33;;;;;0.90;95593.00;;;;8381027;28;20207;-71
2022/12/08 05:41:18;;;;;;;34.73;13.97;;;;;0.80;95591.00;;;;8361720;28;20191;-70
2022/12/08 05:45:21;;;;;;;32.60;13.60;;;;;0.70;95594.00;;;;8370279;28;20198;-72
2022/12/08 05:49:24;;;;;;;35.80;13.97;;;;;0.50;95584.00;;;;8372938;28;20760;-68
2022/12/08 05:53:29;;;;;;;30.13;12.97;;;;;0.40;95586.00;;;;8374694;28;20268;-70
2022/12/08 05:57:32;;;;;;;25.77;12.07;;;;;0.30;95589.00;;;;8377034;28;20681;-69
2022/12/08 06:01:35;;;;;;;30.27;12.23;;;;;0.20;95590.00;;;;8380125;28;20220;-71
2022/12/08 06:05:38;;;;;;;31.73;13.27;;;;;0.10;95586.00;;;;8383055;28;20197;-70
2022/12/08 06:09:43;;;;;;;29.43;13.33;;;;;0.10;95584.00;;;;8390543;28;20212;-71
2022/12/08 06:14:19;;;;;;;30.67;13.43;;;;;0.00;95592.00;;;;8397126;28;20197;-72
2022/12/08 06:18:57;;;;;;;28.83;13.27;;;;;0.00;95581.00;;;;8397887;28;20203;-72
2022/12/08 06:23:34;;;;;;;29.17;12.33;;;;;-0.10;95590.00;;;;8397525;28;20254;-70
2022/12/08 06:28:12;;;;;;;29.07;13.00;;;;;-0.20;95589.00;;;;8398081;28;20642;-71
2022/12/08 06:32:46;;;;;;;36.83;13.17;;;;;-0.20;95591.00;;;;8397204;28;20272;-70
2022/12/08 06:36:49;;;;;;;29.57;13.87;;;;;-0.20;95589.00;;;;8405015;28;20630;-72
2022/12/08 06:40:54;;;;;;;45.13;14.50;;;;;-0.10;95584.00;;;;8402771;28;20196;-72
2022/12/08 06:45:29;;;;;;;45.13;14.53;;;;;-0.20;95580.00;;;;8402610;28;20209;-73
2022/12/08 06:50:03;;;;;;;50.53;14.73;;;;;-0.20;95583.00;;;;8402662;28;20271;-73
2022/12/08 06:54:38;;;;;;;91.70;16.60;;;;;-0.20;95580.00;;;;8402767;28;20289;-72
2022/12/08 06:59:16;;;;;;;61.37;16.33;;;;;-0.20;95586.00;;;;8403100;28;20619;-74
2022/12/08 07:03:20;;;;;;;394.50;26.57;;;;;-0.20;95586.00;;;;8401899;28;20225;-74
2022/12/08 07:07:54;;;;;;;255.03;22.27;;;;;-0.20;95587.00;;;;8402072;28;20203;-74
2022/12/08 07:12:31;;;;;;;121.30;17.47;;;;;-0.20;95586.00;;;;8402370;28;20228;-71
2022/12/08 07:17:08;;;;;;;185.43;18.17;;;;;-0.20;95588.00;;;;8401440;28;20251;-71
2022/12/08 07:21:45;;;;;;;46.97;15.03;;;;;-0.20;95585.00;;;;8401644;28;20194;-71
2022/12/08 07:26:23;;;;;;;38.23;14.77;;;;;-0.20;95590.00;;;;8402620;28;20190;-70
2022/12/08 07:30:57;;;;;;;37.50;14.90;;;;;-0.10;95594.00;;;;8401751;28;20225;-70
2022/12/08 07:35:34;;;;;;;39.23;15.43;;;;;-0.10;95586.00;;;;8401875;28;20545;-70
2022/12/08 07:39:37;;;;;;;36.10;15.20;;;;;0.00;95590.00;;;;8401277;28;20196;-69
2022/12/08 07:43:42;;;;;;;28.27;13.80;;;;;0.10;95587.00;;;;8401375;28;20197;-69
2022/12/08 07:48:17;;;;;;;38.07;15.17;;;;;0.30;95597.00;;;;8400467;28;20180;-69
2022/12/08 07:52:54;;;;;;;32.03;14.10;;;;;0.40;95595.00;;;;8399103;28;20193;-69
2022/12/08 07:57:31;;;;;;;35.63;14.97;;;;;0.60;95586.00;;;;8400897;28;20201;-69
2022/12/08 08:02:07;;;;;;;34.70;13.97;;;;;0.70;95594.00;;;;8400856;28;20217;-68
2022/12/08 08:06:46;;;;;;;29.60;13.30;;;;;0.80;95603.00;;;;8400221;28;20615;-69
2022/12/08 08:11:20;;;;;;;29.17;11.37;;;;;1.00;95601.00;;;;8400647;28;20220;-68
2022/12/08 08:16:02;;;;;;;28.33;12.60;;;;;1.10;95601.00;;;;8400123;28;20197;-68
2022/12/08 08:20:33;;;;;;;28.93;12.50;;;;;1.20;95601.00;;;;8400374;28;20192;-68
2022/12/08 08:25:11;;;;;;;27.27;12.83;;;;;1.30;95594.00;;;;8399655;28;20201;-68
2022/12/08 08:29:14;;;;;;;27.77;12.20;;;;;1.40;95591.00;;;;8400566;28;20227;-69
2022/12/08 08:33:17;;;;;;;32.50;13.60;;;;;1.50;95593.00;;;;8399095;28;20225;-68
2022/12/08 08:37:20;;;;;;;31.10;13.83;;;;;1.60;95595.00;;;;8401047;28;20685;-68
2022/12/08 08:41:57;;;;;;;31.57;13.60;;;;;1.70;95600.00;;;;8399685;28;20198;-67
2022/12/08 08:46:36;;;;;;;32.80;14.57;;;;;1.80;95596.00;;;;8399410;28;20248;-68
2022/12/08 08:51:10;;;;;;;32.03;15.63;;;;;1.90;95597.00;;;;8399202;28;20229;-68
2022/12/08 08:55:44;;;;;;;38.80;15.10;;;;;2.10;95591.00;;;;8399579;28;20268;-68
2022/12/08 09:00:21;;;;;;;31.43;12.87;;;;;2.20;95598.00;;;;8399015;28;20199;-68
2022/12/08 09:04:25;;;;;;;34.53;14.07;;;;;2.30;95596.00;;;;8400247;28;20306;-68
2022/12/08 09:08:59;;;;;;;35.03;13.47;;;;;2.40;95599.00;;;;8398826;28;20514;-68
2022/12/08 09:13:05;;;;;;;30.43;13.67;;;;;2.50;95605.00;;;;8398854;28;20209;-68
2022/12/08 09:17:38;;;;;;;31.80;13.80;;;;;2.60;95603.00;;;;8399660;28;20199;-70
2022/12/08 09:22:17;;;;;;;34.30;13.83;;;;;2.70;95607.00;;;;8398127;28;20633;-69
2022/12/08 09:26:51;;;;;;;27.63;12.87;;;;;2.80;95597.00;;;;8398503;28;20201;-69
2022/12/08 09:31:27;;;;;;;31.27;13.80;;;;;2.90;95591.00;;;;8398231;28;20223;-70
2022/12/08 09:36:04;;;;;;;25.17;12.87;;;;;3.00;95574.00;;;;8397856;28;20194;-70
2022/12/08 09:40:46;;;;;;;29.27;12.30;;;;;3.10;95584.00;;;;8398280;28;20196;-70
2022/12/08 09:44:58;;;;;;;27.70;13.17;;;;;3.30;95577.00;;;;8397246;28;20223;-71
2022/12/08 09:49:03;;;;;;;30.83;13.57;;;;;3.50;95578.00;;;;8397550;28;20623;-71
2022/12/08 09:53:39;;;;;;;30.47;13.53;;;;;3.60;95576.00;;;;8398127;28;20585;-71
2022/12/08 09:57:43;;;;;;;32.30;14.97;;;;;3.80;95578.00;;;;8397800;28;20253;-72
2022/12/08 10:02:20;;;;;;;26.77;13.17;;;;;3.80;95569.00;;;;8397395;28;20266;-72
2022/12/08 10:06:33;;;;;;;33.37;13.17;;;;;4.00;95559.00;;;;8399077;28;20625;-72
2022/12/08 10:10:41;;;;;;;25.63;12.07;;;;;4.20;95549.00;;;;8397503;28;20215;-71
2022/12/08 10:14:48;;;;;;;26.03;12.90;;;;;4.50;95552.00;;;;8398226;28;20196;-71
2022/12/08 10:19:22;;;;;;;29.57;14.37;;;;;4.70;95542.00;;;;8396693;28;20250;-70
2022/12/08 10:24:04;;;;;;;24.13;11.83;;;;;4.90;95546.00;;;;8397664;28;20191;-70
2022/12/08 10:28:09;;;;;;;30.57;13.00;;;;;4.80;95548.00;;;;8398025;28;20692;-70
2022/12/08 10:32:18;;;;;;;32.10;15.20;;;;;4.90;95544.00;;;;8397907;28;20227;-70
2022/12/08 10:36:21;;;;;;;29.73;12.23;;;;;4.90;95531.00;;;;8396830;28;20192;-70
2022/12/08 10:40:27;;;;;;;34.60;14.47;;;;;5.00;95532.00;;;;8397670;28;20196;-71
2022/12/08 10:45:03;;;;;;;26.10;12.93;;;;;5.20;95533.00;;;;8396333;28;20191;-71
2022/12/08 10:49:39;;;;;;;28.73;12.60;;;;;5.20;95516.00;;;;8391202;28;20247;-71
2022/12/08 10:54:24;;;;;;;29.23;14.10;;;;;5.30;95517.00;;;;8397149;28;20200;-72
2022/12/08 10:58:49;;;;;;;34.33;14.83;;;;;5.20;95511.00;;;;8397253;28;20537;-71
2022/12/08 11:03:28;;;;;;;35.90;14.70;;;;;5.10;95509.00;;;;8397045;28;20737;-71
2022/12/08 11:08:01;;;;;;;34.80;14.20;;;;;4.90;95511.00;;;;8396910;28;20538;-71
2022/12/08 11:12:17;;;;;;;38.63;16.60;;;;;4.60;95497.00;;;;8397236;28;20684;-71
2022/12/08 11:16:49;;;;;;;37.93;16.40;;;;;4.50;95495.00;;;;8397768;28;20195;-69
2022/12/08 11:21:35;;;;;;;41.70;15.73;;;;;4.40;95482.00;;;;8398167;28;20199;-70
2022/12/08 11:26:12;;;;;;;32.77;14.13;;;;;4.30;95488.00;;;;8402181;28;20195;-70
2022/12/08 11:30:43;;;;;;;39.80;16.60;;;;;4.30;95481.00;;;;8401603;28;20223;-70
2022/12/08 11:35:24;;;;;;;34.17;14.13;;;;;4.30;95479.00;;;;8402825;28;20545;-70
2022/12/08 11:39:29;;;;;;;28.73;13.97;;;;;4.30;95479.00;;;;8401341;28;20239;-70
2022/12/08 11:44:05;;;;;;;27.17;12.50;;;;;4.30;95471.00;;;;8401491;28;20201;-70
2022/12/08 11:48:39;;;;;;;26.50;11.97;;;;;4.30;95465.00;;;;8400799;28;20197;-70
2022/12/08 11:53:22;;;;;;;24.50;11.77;;;;;4.30;95453.00;;;;8400983;28;20279;-70
2022/12/08 11:57:50;;;;;;;25.27;11.33;;;;;4.30;95451.00;;;;8401258;28;20223;-70
2022/12/08 12:02:27;;;;;;;24.20;10.50;;;;;4.20;95451.00;;;;8400954;28;20223;-69
2022/12/08 12:12:14;;;;;;;26.43;11.90;;;;;3.90;95441.00;;;;8401153;28;20250;-69
2022/12/08 12:16:50;;;;;;;26.23;11.37;;;;;3.90;95437.00;;;;8399957;28;20195;-70
2022/12/08 12:21:18;;;;;;;24.50;10.47;;;;;4.00;95445.00;;;;8399828;28;20246;-69
2022/12/08 12:25:51;;;;;;;26.07;14.00;;;;;4.10;95437.00;;;;8399971;28;20192;-70
2022/12/08 12:29:58;;;;;;;30.70;14.17;;;;;4.10;95431.00;;;;8400503;28;20204;-69
2022/12/08 12:34:33;;;;;;;31.67;14.27;;;;;4.20;95432.00;;;;8399081;28;20499;-69
2022/12/08 12:39:19;;;;;;;35.40;15.83;;;;;4.20;95422.00;;;;8401165;28;20192;-70
2022/12/08 12:44:05;;;;;;;57.20;23.97;;;;;4.30;95417.00;;;;8399876;28;20255;-69
2022/12/08 12:53:43;;;;;;;27.10;13.17;;;;;4.40;95425.00;;;;8399514;28;20223;-70
2022/12/08 12:57:53;;;;;;;32.00;15.73;;;;;4.50;95428.00;;;;8398938;28;20521;-70
2022/12/08 13:02:24;;;;;;;24.83;12.27;;;;;4.60;95423.00;;;;8397399;28;20216;-70
2022/12/08 13:06:35;;;;;;;21.50;10.83;;;;;4.70;95419.00;;;;8398586;28;20199;-69
2022/12/08 13:10:40;;;;;;;15.00;7.53;;;;;4.70;95420.00;;;;8398002;28;20224;-70
2022/12/08 13:15:21;;;;;;;18.20;8.80;;;;;4.50;95420.00;;;;8398613;28;20200;-70
2022/12/08 13:19:52;;;;;;;19.33;8.50;;;;;4.40;95427.00;;;;8396870;28;20200;-69
2022/12/08 13:24:31;;;;;;;18.87;9.67;;;;;4.30;95408.00;;;;8397998;28;20192;-70
2022/12/08 13:29:11;;;;;;;20.10;9.57;;;;;4.20;95406.00;;;;8397690;28;20195;-70
2022/12/08 13:33:49;;;;;;;21.10;9.90;;;;;4.10;95409.00;;;;8397923;28;20227;-70
2022/12/08 13:38:26;;;;;;;20.97;7.63;;;;;4.10;95404.00;;;;8397005;28;20192;-71
2022/12/08 13:43:00;;;;;;;20.00;9.20;;;;;4.00;95406.00;;;;8397642;28;20541;-71
2022/12/08 13:47:35;;;;;;;16.70;8.67;;;;;4.10;95413.00;;;;8397050;28;20192;-71
2022/12/08 13:52:18;;;;;;;21.13;12.67;;;;;4.00;95417.00;;;;8397444;28;20222;-70
2022/12/08 13:56:44;;;;;;;19.10;8.67;;;;;4.10;95413.00;;;;8396896;28;20196;-71
2022/12/08 14:01:12;;;;;;;14.70;7.90;;;;;4.10;95418.00;;;;8397826;28;20203;-71
2022/12/08 14:05:43;;;;;;;18.37;7.40;;;;;4.00;95409.00;;;;8397366;28;20223;-71
2022/12/08 14:10:46;;;;;;;15.77;7.53;;;;;3.90;95418.00;;;;8396632;28;20615;-71
2022/12/08 14:14:52;;;;;;;15.17;7.77;;;;;3.90;95396.00;;;;8397230;28;20192;-71
2022/12/08 14:19:11;;;;;;;16.60;8.70;;;;;3.80;95389.00;;;;8397056;28;20188;-71
2022/12/08 14:23:17;;;;;;;15.57;9.23;;;;;3.90;95388.00;;;;8397962;28;20180;-72
2022/12/08 14:27:24;;;;;;;11.50;7.03;;;;;3.80;95376.00;;;;8396674;28;20198;-72
2022/12/08 14:31:57;;;;;;;14.03;7.10;;;;;3.70;95377.00;;;;8398129;28;20226;-72
2022/12/08 14:36:35;;;;;;;13.80;6.90;;;;;3.60;95390.00;;;;8396314;28;20200;-72
2022/12/08 14:40:40;;;;;;;12.63;7.57;;;;;3.50;95382.00;;;;8396520;28;20246;-71
2022/12/08 14:44:45;;;;;;;12.43;6.63;;;;;3.50;95381.00;;;;8397504;28;20207;-72
2022/12/08 14:48:48;;;;;;;11.67;6.63;;;;;3.40;95380.00;;;;8396645;28;20634;-74
2022/12/08 14:53:25;;;;;;;12.50;7.43;;;;;3.30;95377.00;;;;8396338;28;20713;-74
2022/12/08 14:57:34;;;;;;;11.83;6.80;;;;;3.10;95376.00;;;;8403397;28;20250;-74
2022/12/08 15:02:20;;;;;;;20.03;6.90;;;;;3.00;95382.00;;;;8403435;28;20212;-74
2022/12/08 15:06:25;;;;;;;12.17;6.90;;;;;2.80;95377.00;;;;8378144;28;20208;-74
2022/12/08 15:10:30;;;;;;;12.37;6.57;;;;;2.70;95375.00;;;;8403150;28;20648;-75
2022/12/08 15:15:15;;;;;;;23.63;6.77;;;;;2.40;95372.00;;;;8401930;28;20222;-75
2022/12/08 15:19:40;;;;;;;11.80;6.50;;;;;2.20;95378.00;;;;8399764;28;20192;-75
2022/12/08 15:23:46;;;;;;;25.27;12.33;;;;;2.00;95375.00;;;;8402291;28;20577;-73
2022/12/08 15:28:23;;;;;;;25.77;11.80;;;;;2.00;95376.00;;;;8401653;28;20191;-74
2022/12/08 15:32:31;;;;;;;32.80;13.33;;;;;2.00;95375.00;;;;8401338;28;20242;-73
2022/12/08 15:36:36;;;;;;;37.43;15.30;;;;;1.90;95382.00;;;;8399495;28;20187;-72
2022/12/08 15:41:10;;;;;;;36.27;14.63;;;;;1.80;95377.00;;;;8397627;28;20199;-74
2022/12/08 15:45:19;;;;;;;42.07;15.80;;;;;1.70;95381.00;;;;8402263;28;20647;-74
2022/12/08 15:49:24;;;;;;;31.37;14.53;;;;;1.60;95386.00;;;;8399949;28;20273;-75
2022/12/08 15:53:27;;;;;;;35.73;13.60;;;;;1.60;95382.00;;;;8400583;28;20222;-74
2022/12/08 15:57:32;;;;;;;34.73;14.57;;;;;1.50;95383.00;;;;8401407;28;20230;-74
2022/12/08 16:01:56;;;;;;;29.10;13.47;;;;;1.40;95383.00;;;;8401967;28;20598;-74
2022/12/08 16:06:30;;;;;;;34.57;14.33;;;;;1.30;95379.00;;;;8400736;28;20195;-73
2022/12/08 16:13:49;;;;;;;28.27;12.63;;;;;1.20;95383.00;;;;8401028;28;20196;-74
2022/12/08 16:15:39;;;;;;;29.07;12.97;;;;;1.00;95388.00;;;;8400088;28;20198;-73
2022/12/08 16:20:04;;;;;;;29.03;12.13;;;;;0.80;95384.00;;;;8400363;28;20186;-74
2022/12/08 16:24:07;;;;;;;30.07;12.37;;;;;0.80;95391.00;;;;8400147;28;20210;-73
2022/12/08 16:28:45;;;;;;;27.43;12.60;;;;;0.60;95395.00;;;;8399820;28;20204;-73
2022/12/08 16:32:56;;;;;;;30.20;13.43;;;;;0.60;95388.00;;;;8400383;28;20203;-73
2022/12/08 16:37:34;;;;;;;29.37;13.07;;;;;0.60;95384.00;;;;8399128;28;20198;-73
2022/12/08 16:45:58;;;;;;;30.80;12.87;;;;;0.80;95389.00;;;;8399230;28;20190;-73
2022/12/08 16:50:04;;;;;;;39.20;15.13;;;;;0.90;95388.00;;;;8397559;28;20199;-72
2022/12/08 16:54:09;;;;;;;41.97;15.43;;;;;1.00;95387.00;;;;8399283;28;20230;-72
2022/12/08 16:58:43;;;;;;;34.80;14.90;;;;;1.10;95385.00;;;;8398794;28;20245;-72
2022/12/08 17:02:46;;;;;;;31.77;13.13;;;;;1.20;95387.00;;;;8398693;28;20220;-72
2022/12/08 17:07:20;;;;;;;53.77;18.77;;;;;1.40;95400.00;;;;8395500;28;20198;-72
2022/12/08 17:11:27;;;;;;;53.87;18.60;;;;;1.50;95380.00;;;;8399526;28;20261;-72
2022/12/08 17:15:30;;;;;;;48.33;17.90;;;;;1.60;95379.00;;;;8397755;28;20197;-72
2022/12/08 17:19:33;;;;;;;76.70;28.13;;;;;1.70;95374.00;;;;8398289;28;20218;-72
2022/12/08 17:23:37;;;;;;;67.70;23.57;;;;;1.70;95366.00;;;;8398620;28;20226;-72
2022/12/08 17:27:42;;;;;;;58.57;21.17;;;;;1.80;95364.00;;;;8395911;28;20210;-72
2022/12/08 17:31:45;;;;;;;52.23;20.13;;;;;1.90;95372.00;;;;8399576;28;20226;-72
2022/12/08 17:35:48;;;;;;;67.57;21.30;;;;;1.90;95379.00;;;;8397936;28;20490;-72
2022/12/08 17:39:51;;;;;;;74.83;23.07;;;;;1.90;95377.00;;;;8397752;28;20196;-72
2022/12/08 17:43:56;;;;;;;77.33;24.17;;;;;1.90;95370.00;;;;8397688;28;20205;-72
2022/12/08 17:47:59;;;;;;;75.37;24.27;;;;;2.00;95372.00;;;;8397686;28;20253;-71
2022/12/08 17:52:36;;;;;;;75.07;23.73;;;;;2.00;95375.00;;;;8398111;28;20565;-72
2022/12/08 17:56:39;;;;;;;64.67;21.70;;;;;1.90;95376.00;;;;8397866;28;20198;-72
2022/12/08 18:00:44;;;;;;;57.93;20.47;;;;;1.90;95384.00;;;;8398818;28;20632;-71
2022/12/08 18:05:17;;;;;;;65.47;20.13;;;;;2.00;95376.00;;;;8397925;28;20214;-71
2022/12/08 18:09:21;;;;;;;60.23;19.87;;;;;1.90;95369.00;;;;8398252;28;20209;-71
2022/12/08 18:13:24;;;;;;;62.70;19.80;;;;;1.90;95369.00;;;;8397348;28;20215;-71
2022/12/08 18:18:03;;;;;;;58.30;19.07;;;;;1.90;95366.00;;;;8398296;28;20211;-71
2022/12/08 18:22:06;;;;;;;56.60;20.03;;;;;2.00;95371.00;;;;8396888;28;20200;-71
2022/12/08 18:26:11;;;;;;;56.10;18.90;;;;;2.00;95354.00;;;;8397557;28;20207;-70
2022/12/08 18:30:17;;;;;;;51.87;18.03;;;;;1.90;95355.00;;;;8399529;28;20239;-71
2022/12/08 18:34:52;;;;;;;47.13;18.37;;;;;1.90;95365.00;;;;8404582;28;20285;-71
2022/12/08 18:38:55;;;;;;;60.37;18.20;;;;;1.90;95366.00;;;;8404313;28;20620;-71
2022/12/08 18:42:59;;;;;;;62.80;20.40;;;;;1.90;95366.00;;;;8402928;28;20207;-71
2022/12/08 18:47:02;;;;;;;58.03;17.30;;;;;1.90;95359.00;;;;8405416;28;20215;-71
2022/12/08 18:51:40;;;;;;;56.43;19.03;;;;;1.90;95352.00;;;;8398734;28;20241;-71
2022/12/08 18:55:45;;;;;;;54.23;18.27;;;;;1.80;95340.00;;;;8403224;28;20221;-71
2022/12/08 18:59:48;;;;;;;57.77;20.47;;;;;1.80;95355.00;;;;8403290;28;20506;-72
2022/12/08 19:03:51;;;;;;;59.47;20.70;;;;;1.80;95352.00;;;;8401517;28;20218;-71
2022/12/08 19:08:31;;;;;;;57.70;19.83;;;;;1.80;95359.00;;;;8401936;28;20203;-72
2022/12/08 19:13:05;;;;;;;69.97;25.50;;;;;1.90;95350.00;;;;8404470;28;20616;-72
2022/12/08 19:17:42;;;;;;;73.00;27.37;;;;;1.90;95366.00;;;;8402167;28;20204;-71
2022/12/08 19:21:45;;;;;;;66.40;21.43;;;;;1.90;95359.00;;;;8403271;28;20254;-71
2022/12/08 19:31:10;;;;;;;70.17;21.93;;;;;1.90;95362.00;;;;8402499;28;20230;-72
2022/12/08 19:35:44;;;;;;;67.00;18.60;;;;;1.90;95358.00;;;;8398998;28;20285;-72
2022/12/08 19:44:54;;;;;;;67.10;21.53;;;;;2.00;95360.00;;;;8398248;28;20250;-72
2022/12/08 19:49:17;;;;;;;62.07;20.87;;;;;2.00;95361.00;;;;8401929;28;20638;-72
2022/12/08 19:53:51;;;;;;;74.97;21.97;;;;;2.00;95355.00;;;;8400584;28;20219;-72
2022/12/08 19:58:28;;;;;;;56.87;20.80;;;;;2.00;95353.00;;;;8398066;28;20728;-72
2022/12/08 20:03:05;;;;;;;60.27;19.67;;;;;2.00;95348.00;;;;8400286;28;20279;-72
2022/12/08 20:07:12;;;;;;;62.43;20.40;;;;;2.00;95342.00;;;;8400850;28;20281;-72
2022/12/08 20:11:15;;;;;;;66.30;21.83;;;;;2.00;95340.00;;;;8401545;28;20199;-72
2022/12/08 20:15:18;;;;;;;66.97;22.30;;;;;2.00;95328.00;;;;8400631;28;20277;-73
2022/12/08 20:19:21;;;;;;;62.40;21.90;;;;;2.00;95349.00;;;;8401365;28;20200;-72
2022/12/08 20:23:58;;;;;;;70.60;24.33;;;;;2.00;95339.00;;;;8401891;28;20200;-72
2022/12/08 20:28:03;;;;;;;71.00;24.20;;;;;2.00;95342.00;;;;8400016;28;20646;-72
2022/12/08 20:32:06;;;;;;;61.87;21.90;;;;;2.00;95345.00;;;;8400896;28;20545;-72
2022/12/08 20:36:43;;;;;;;65.33;22.87;;;;;1.90;95346.00;;;;8400188;28;20624;-73
2022/12/08 20:40:47;;;;;;;66.07;22.00;;;;;2.00;95350.00;;;;8397927;28;20536;-72
2022/12/08 20:44:52;;;;;;;58.60;21.93;;;;;2.00;95346.00;;;;8399202;28;20207;-73
2022/12/08 20:48:56;;;;;;;69.63;22.57;;;;;2.00;95356.00;;;;8400030;28;20253;-73
2022/12/08 20:52:59;;;;;;;79.97;26.13;;;;;2.00;95347.00;;;;8399592;28;20679;-72
2022/12/08 20:57:36;;;;;;;70.80;25.03;;;;;2.00;95354.00;;;;8400488;28;20587;-73
2022/12/08 21:01:40;;;;;;;63.30;23.67;;;;;2.10;95359.00;;;;8398431;28;20220;-73
2022/12/08 21:06:15;;;;;;;71.53;25.67;;;;;2.10;95358.00;;;;8399038;28;20199;-73
2022/12/08 21:10:52;;;;;;;87.30;27.93;;;;;2.10;95350.00;;;;8394664;28;20298;-72
2022/12/08 21:14:55;;;;;;;71.43;25.80;;;;;2.20;95354.00;;;;8399008;28;20223;-73
2022/12/08 21:19:00;;;;;;;78.40;27.10;;;;;2.20;95347.00;;;;8398456;28;20199;-73
2022/12/08 21:23:34;;;;;;;72.53;25.93;;;;;2.20;95350.00;;;;8398622;28;20194;-73
2022/12/08 21:27:38;;;;;;;67.60;24.63;;;;;2.20;95354.00;;;;8398110;28;20317;-73
2022/12/08 21:32:12;;;;;;;79.00;25.53;;;;;2.10;95357.00;;;;8398508;28;20209;-72
2022/12/08 21:36:20;;;;;;;74.33;25.23;;;;;2.20;95349.00;;;;8398044;28;20265;-72
2022/12/08 21:40:23;;;;;;;64.93;24.27;;;;;2.20;95340.00;;;;8398599;28;20517;-72
2022/12/08 21:44:27;;;;;;;83.77;25.83;;;;;2.10;95345.00;;;;8397479;28;20194;-74